Bergen Op Zoom, Netherlands
Current Conditions -  °F | °C
As of 12:55 AM on Thursday 23 Oct 2014 (Local Time) from EHWO Reporting Station
Overcast Overcast  
Wind Chill: 50°   Ceiling: 4300
Heat Index: 50°   Visibility: 6mi
Dew Point: 46°   Wind: 3mph
Humidity: 87%   Direction: 220°SW
Pressure: 30.18"   Gusts: NA
Location:  51.51°N, 4.3°E
Report Text: EHWO 222255Z AUTO 22003KT 9999 OVC043 10/08 Q1022 BLU
Loading
Personal Weather Stations






























Interactive Weather Map
Tropical Storm Tracking
New forecast layout! Learn more

10-Day Weather Forecast

Advertisements
Track Severe Weather on mobile